createdAt,value
2023-04-17T00:01:04.191Z,0.52
2023-04-17T00:02:10.909Z,0.70
2023-04-17T00:03:14.250Z,0.40
2023-04-17T00:04:18.480Z,1.00
2023-04-17T00:05:23.445Z,0.73
2023-04-17T00:06:27.554Z,0.60
2023-04-17T00:07:30.019Z,0.50
2023-04-17T00:08:34.948Z,0.60
2023-04-17T00:09:37.825Z,0.63
2023-04-17T00:10:44.417Z,0.65
2023-04-17T00:11:51.072Z,0.65
2023-04-17T00:12:54.611Z,0.82
2023-04-17T00:13:57.193Z,0.60
2023-04-17T00:15:00.948Z,0.60
2023-04-17T00:16:03.901Z,0.73
2023-04-17T00:17:07.254Z,0.40
2023-04-17T00:18:13.180Z,0.60
2023-04-17T00:19:17.047Z,0.75
2023-04-17T00:20:19.878Z,0.45
2023-04-17T00:21:23.328Z,0.52
2023-04-17T00:22:25.862Z,0.60
2023-04-17T00:23:29.642Z,0.65
2023-04-17T00:24:32.259Z,0.60
2023-04-17T00:25:35.599Z,0.63
2023-04-17T00:26:38.083Z,0.47
2023-04-17T00:27:43.365Z,0.60
2023-04-17T00:28:47.770Z,0.95
2023-04-17T00:29:50.977Z,0.75
2023-04-17T00:30:53.314Z,0.68
2023-04-17T00:31:56.740Z,0.60
2023-04-17T00:32:59.225Z,0.93
2023-04-17T00:34:02.695Z,0.82
2023-04-17T00:35:05.735Z,0.77
2023-04-17T00:36:13.737Z,0.83
2023-04-17T00:37:16.183Z,0.70
2023-04-17T00:38:19.695Z,0.88
2023-04-17T00:39:22.162Z,0.60
2023-04-17T00:40:25.934Z,0.82
2023-04-17T00:41:28.515Z,0.73
2023-04-17T00:42:32.845Z,0.80
2023-04-17T00:43:36.769Z,0.98
2023-04-17T00:44:40.325Z,0.80
2023-04-17T00:45:42.812Z,0.50
2023-04-17T00:46:47.810Z,0.73
2023-04-17T00:47:52.197Z,0.60
2023-04-17T00:48:56.275Z,0.63
2023-04-17T00:49:59.227Z,0.50
2023-04-17T00:51:03.585Z,0.50
2023-04-17T00:52:11.631Z,1.02
2023-04-17T00:53:15.834Z,0.68
2023-04-17T00:54:19.383Z,0.82
2023-04-17T00:55:26.259Z,0.60
2023-04-17T00:56:30.160Z,0.57
2023-04-17T00:57:35.827Z,0.60
2023-04-17T00:58:41.339Z,0.68
2023-04-17T00:59:46.978Z,0.90
2023-04-17T01:00:50.069Z,0.95
2023-04-17T01:01:54.436Z,0.93
2023-04-17T01:02:57.904Z,0.90
2023-04-17T01:04:05.360Z,0.93
2023-04-17T01:05:09.070Z,0.82
2023-04-17T01:06:13.865Z,1.30
2023-04-17T01:07:16.804Z,1.02
2023-04-17T01:08:21.029Z,0.70
2023-04-17T01:09:24.205Z,0.90
2023-04-17T01:10:27.944Z,1.35
2023-04-17T01:11:31.414Z,0.80
2023-04-17T01:12:35.916Z,0.77
2023-04-17T01:13:46.703Z,0.80
2023-04-17T01:14:51.637Z,0.90
2023-04-17T01:15:54.293Z,0.88
2023-04-17T01:16:58.234Z,0.77
2023-04-17T01:18:01.638Z,0.80
2023-04-17T01:19:06.532Z,1.00
2023-04-17T01:20:11.162Z,1.10
2023-04-17T01:21:15.248Z,1.02
2023-04-17T01:22:18.188Z,0.80
2023-04-17T01:23:21.652Z,0.80
2023-04-17T01:24:25.891Z,0.82
2023-04-17T01:25:29.900Z,0.85
2023-04-17T01:26:32.724Z,0.60
2023-04-17T01:27:36.708Z,0.70
2023-04-17T01:28:39.503Z,0.70
2023-04-17T01:29:43.939Z,1.10
2023-04-17T01:30:46.830Z,0.90
2023-04-17T01:31:50.545Z,1.10
2023-04-17T01:32:54.656Z,1.30
2023-04-17T01:33:58.228Z,0.95
2023-04-17T01:35:00.662Z,0.95
2023-04-17T01:36:04.658Z,1.20
2023-04-17T01:37:07.702Z,1.00
2023-04-17T01:38:11.603Z,1.23
2023-04-17T01:39:15.910Z,1.08
2023-04-17T01:40:21.079Z,1.20
2023-04-17T01:41:23.609Z,1.00
2023-04-17T01:42:27.598Z,0.95
2023-04-17T01:43:30.476Z,0.70
2023-04-17T01:44:34.203Z,0.70
2023-04-17T01:45:36.719Z,0.65
2023-04-17T01:46:40.268Z,0.75
2023-04-17T01:47:42.749Z,0.70
2023-04-17T01:48:46.468Z,0.60
2023-04-17T01:49:49.567Z,0.70
2023-04-17T01:50:53.095Z,0.73
2023-04-17T01:51:55.450Z,0.90
2023-04-17T01:52:59.550Z,1.20
2023-04-17T01:54:02.125Z,0.68
2023-04-17T01:55:06.447Z,0.70
2023-04-17T01:56:10.756Z,0.73
2023-04-17T01:57:14.185Z,0.75
2023-04-17T01:58:16.683Z,0.85
2023-04-17T01:59:20.222Z,0.77
2023-04-17T02:00:23.389Z,0.82
2023-04-17T02:01:26.894Z,0.90
2023-04-17T02:02:29.273Z,0.90
2023-04-17T02:03:33.364Z,0.80
2023-04-17T02:04:35.914Z,0.80
2023-04-17T02:05:39.471Z,0.70
2023-04-17T02:06:42.506Z,0.80
2023-04-17T02:07:46.093Z,0.90
2023-04-17T02:08:48.458Z,1.25
2023-04-17T02:09:51.829Z,1.10
2023-04-17T02:10:54.178Z,1.00
2023-04-17T02:11:59.216Z,1.13
2023-04-17T02:13:01.888Z,0.82
2023-04-17T02:14:05.602Z,1.10
2023-04-17T02:15:09.332Z,0.88
2023-04-17T02:16:12.974Z,0.93
2023-04-17T02:17:15.644Z,0.98
2023-04-17T02:18:19.616Z,0.90
2023-04-17T02:19:23.446Z,0.60
2023-04-17T02:20:27.124Z,0.80
2023-04-17T02:21:29.635Z,0.80
2023-04-17T02:22:33.085Z,1.00
2023-04-17T02:23:35.554Z,1.15
2023-04-17T02:24:39.311Z,0.82
2023-04-17T02:25:41.675Z,0.70
2023-04-17T02:26:46.320Z,0.90
2023-04-17T02:27:51.119Z,1.10
2023-04-17T02:28:54.578Z,1.10
2023-04-17T02:29:57.102Z,0.95
2023-04-17T02:31:00.816Z,1.00
2023-04-17T02:32:03.536Z,1.02
2023-04-17T02:33:07.486Z,1.00
2023-04-17T02:34:10.194Z,0.50
2023-04-17T02:35:13.662Z,0.88
2023-04-17T02:36:16.671Z,0.98
2023-04-17T02:37:20.069Z,0.88
2023-04-17T02:38:22.618Z,0.75
2023-04-17T02:39:27.343Z,0.77
2023-04-17T02:40:29.783Z,1.08
2023-04-17T02:41:33.503Z,1.10
2023-04-17T02:42:36.285Z,0.70
2023-04-17T02:43:41.813Z,0.93
2023-04-17T02:44:46.559Z,0.80
2023-04-17T02:45:49.829Z,0.80
2023-04-17T02:46:52.407Z,0.95
2023-04-17T02:47:56.150Z,1.05
2023-04-17T02:48:58.856Z,0.98
2023-04-17T02:50:03.168Z,1.13
2023-04-17T02:51:06.091Z,1.10
2023-04-17T02:52:10.527Z,0.80
2023-04-17T02:53:13.296Z,0.85
2023-04-17T02:54:17.095Z,0.80
2023-04-17T02:55:21.334Z,0.70
2023-04-17T02:56:24.914Z,0.85
2023-04-17T02:57:27.819Z,0.90
2023-04-17T02:58:31.211Z,0.68
2023-04-17T02:59:35.013Z,0.70
2023-04-17T03:00:40.889Z,0.80
2023-04-17T03:01:45.832Z,0.70
2023-04-17T03:02:49.818Z,1.02
2023-04-17T03:03:53.043Z,1.23
2023-04-17T03:04:56.947Z,1.17
2023-04-17T03:05:59.412Z,0.80
2023-04-17T03:07:04.217Z,0.80
2023-04-17T03:08:06.880Z,0.85
2023-04-17T03:09:12.484Z,0.75
2023-04-17T03:10:15.859Z,0.80
2023-04-17T03:11:19.274Z,1.00
2023-04-17T03:12:21.784Z,0.80
2023-04-17T03:13:26.031Z,0.98
2023-04-17T03:14:28.709Z,0.75
2023-04-17T03:15:33.863Z,1.00
2023-04-17T03:16:36.672Z,0.77
2023-04-17T03:17:40.613Z,0.40
2023-04-17T03:18:43.098Z,0.75
2023-04-17T03:19:47.115Z,0.77
2023-04-17T03:20:49.527Z,0.80
2023-04-17T03:21:53.678Z,0.70
2023-04-17T03:22:56.936Z,0.93
2023-04-17T03:24:00.653Z,0.52
2023-04-17T03:25:03.625Z,0.57
2023-04-17T03:26:08.145Z,0.50
2023-04-17T03:27:10.866Z,0.50
2023-04-17T03:28:15.323Z,0.60
2023-04-17T03:29:17.892Z,0.60
2023-04-17T03:30:21.440Z,0.73
2023-04-17T03:31:25.931Z,0.40
2023-04-17T03:32:29.681Z,0.60
2023-04-17T03:33:32.076Z,0.65
2023-04-17T03:34:35.332Z,0.77
2023-04-17T03:35:38.518Z,0.57
2023-04-17T03:36:41.993Z,0.80
2023-04-17T03:37:44.466Z,0.60
2023-04-17T03:38:48.317Z,1.02
2023-04-17T03:39:50.643Z,0.98
2023-04-17T03:40:54.219Z,0.85
2023-04-17T03:41:56.525Z,0.60
2023-04-17T03:43:00.532Z,1.10
2023-04-17T03:44:03.037Z,1.70
2023-04-17T03:45:07.325Z,1.08
2023-04-17T03:46:10.167Z,0.70
2023-04-17T03:47:15.661Z,0.93
2023-04-17T03:48:18.220Z,0.73
2023-04-17T03:49:21.882Z,1.00
2023-04-17T03:50:24.534Z,1.00
2023-04-17T03:51:28.803Z,0.93
2023-04-17T03:52:31.226Z,1.10
2023-04-17T03:53:34.805Z,1.08
2023-04-17T03:54:37.367Z,1.10
2023-04-17T03:55:40.995Z,0.88
2023-04-17T03:56:43.628Z,1.05
2023-04-17T03:57:48.745Z,1.30
2023-04-17T03:58:51.735Z,0.80
2023-04-17T03:59:55.459Z,1.00
2023-04-17T04:00:58.753Z,0.80
2023-04-17T04:02:02.427Z,0.60
2023-04-17T04:03:07.807Z,0.80
2023-04-17T04:04:12.509Z,0.70
2023-04-17T04:05:15.996Z,0.73
2023-04-17T04:06:20.469Z,0.70
2023-04-17T04:07:23.055Z,0.70
2023-04-17T04:08:27.268Z,0.50
2023-04-17T04:09:30.039Z,0.50
2023-04-17T04:10:33.879Z,0.73
2023-04-17T04:11:36.854Z,0.70
2023-04-17T04:12:41.213Z,0.50
2023-04-17T04:13:43.839Z,0.70
2023-04-17T04:14:47.432Z,0.85
2023-04-17T04:15:50.224Z,0.57
2023-04-17T04:16:54.269Z,0.80
2023-04-17T04:17:56.849Z,0.55
2023-04-17T04:19:02.002Z,0.60
2023-04-17T04:20:05.326Z,0.55
2023-04-17T04:21:08.982Z,0.70
2023-04-17T04:22:13.702Z,0.65
2023-04-17T04:23:17.272Z,0.90
2023-04-17T04:24:20.549Z,0.63
2023-04-17T04:25:24.148Z,0.80
2023-04-17T04:26:27.339Z,0.70
2023-04-17T04:27:33.014Z,0.60
2023-04-17T04:28:35.619Z,0.75
2023-04-17T04:29:39.266Z,0.93
2023-04-17T04:30:41.800Z,0.63
2023-04-17T04:31:47.141Z,0.90
2023-04-17T04:32:49.684Z,0.90
2023-04-17T04:33:55.436Z,0.80
2023-04-17T04:35:02.432Z,0.80
2023-04-17T04:36:06.744Z,0.73
2023-04-17T04:37:09.546Z,0.90
2023-04-17T04:38:14.518Z,1.08
2023-04-17T04:39:20.882Z,0.60
2023-04-17T04:40:24.725Z,0.67
2023-04-17T04:41:27.145Z,0.88
2023-04-17T04:42:30.550Z,2.75
2023-04-17T04:43:33.849Z,1.00
2023-04-17T04:44:37.870Z,1.10
2023-04-17T04:45:40.677Z,0.90
2023-04-17T04:46:44.074Z,0.75
2023-04-17T04:47:46.621Z,1.08
2023-04-17T04:48:50.307Z,1.10
2023-04-17T04:49:53.247Z,0.63
2023-04-17T04:50:58.398Z,0.90
2023-04-17T04:52:00.778Z,1.63
2023-04-17T04:53:04.379Z,0.80
2023-04-17T04:54:07.093Z,0.85
2023-04-17T04:55:10.838Z,1.15
2023-04-17T04:56:13.259Z,1.00
2023-04-17T04:57:17.259Z,0.80
2023-04-17T04:58:19.828Z,1.00
2023-04-17T04:59:23.409Z,1.33
2023-04-17T05:00:26.539Z,1.10
2023-04-17T05:01:30.398Z,1.03
2023-04-17T05:02:33.430Z,1.20
2023-04-17T05:03:37.732Z,1.38
2023-04-17T05:04:40.429Z,1.38
2023-04-17T05:05:45.059Z,1.27
2023-04-17T05:06:49.824Z,1.10
2023-04-17T05:07:53.726Z,1.38
2023-04-17T05:08:57.276Z,1.20
2023-04-17T05:09:59.549Z,1.30
2023-04-17T05:11:03.031Z,1.27
2023-04-17T05:12:06.550Z,1.43
2023-04-17T05:13:10.471Z,1.00
2023-04-17T05:14:13.626Z,1.15
2023-04-17T05:15:17.585Z,1.50
2023-04-17T05:16:21.030Z,2.95
2023-04-17T05:17:23.679Z,1.33
2023-04-17T05:18:27.495Z,1.20
2023-04-17T05:19:30.531Z,1.13
2023-04-17T05:20:33.993Z,0.95
2023-04-17T05:21:36.527Z,1.30
2023-04-17T05:22:41.526Z,1.47
2023-04-17T05:23:43.915Z,1.00
2023-04-17T05:24:47.626Z,1.35
2023-04-17T05:25:50.785Z,1.00
2023-04-17T05:26:54.863Z,1.10
2023-04-17T05:27:57.332Z,1.20
2023-04-17T05:29:01.000Z,0.80
2023-04-17T05:30:03.616Z,1.58
2023-04-17T05:31:07.587Z,1.42
2023-04-17T05:32:10.558Z,1.33
2023-04-17T05:33:14.158Z,1.53
2023-04-17T05:34:16.544Z,0.82
2023-04-17T05:35:19.984Z,1.20
2023-04-17T05:36:22.947Z,1.00
2023-04-17T05:37:26.319Z,1.25
2023-04-17T05:38:32.078Z,1.58
2023-04-17T05:39:34.690Z,1.17
2023-04-17T05:40:38.285Z,1.30
2023-04-17T05:41:40.715Z,1.38
2023-04-17T05:42:44.824Z,1.50
2023-04-17T05:43:47.530Z,1.30
2023-04-17T05:44:51.183Z,1.80
2023-04-17T05:45:53.926Z,1.02
2023-04-17T05:47:00.244Z,1.55
2023-04-17T05:48:03.423Z,1.65
2023-04-17T05:49:07.306Z,1.33
2023-04-17T05:50:10.119Z,2.15
2023-04-17T05:51:14.092Z,1.50
2023-04-17T05:52:18.014Z,2.15
2023-04-17T05:53:21.366Z,1.02
2023-04-17T05:54:25.136Z,1.80
2023-04-17T05:55:28.723Z,2.92
2023-04-17T05:56:31.732Z,1.55
2023-04-17T05:57:35.845Z,1.83
2023-04-17T05:58:38.513Z,1.45
2023-04-17T05:59:42.167Z,2.30
2023-04-17T06:00:45.197Z,1.88
2023-04-17T06:01:48.920Z,1.63
2023-04-17T06:02:51.649Z,2.17
2023-04-17T06:03:55.376Z,1.40
2023-04-17T06:04:58.750Z,2.73
2023-04-17T06:06:02.675Z,1.73
2023-04-17T06:07:06.338Z,1.73
2023-04-17T06:08:09.963Z,1.50
2023-04-17T06:09:12.933Z,1.38
2023-04-17T06:10:18.090Z,1.70
2023-04-17T06:11:20.747Z,1.80
2023-04-17T06:12:24.384Z,1.55
2023-04-17T06:13:27.344Z,1.60
2023-04-17T06:14:30.806Z,1.52
2023-04-17T06:15:33.215Z,1.70
2023-04-17T06:16:37.254Z,2.38
2023-04-17T06:17:41.032Z,1.55
2023-04-17T06:18:44.393Z,1.77
2023-04-17T06:19:46.758Z,1.65
2023-04-17T06:20:50.951Z,1.45
2023-04-17T06:21:53.523Z,1.75
2023-04-17T06:22:57.279Z,2.70
2023-04-17T06:24:00.054Z,1.67
2023-04-17T06:25:03.560Z,2.30
2023-04-17T06:26:07.487Z,1.93
2023-04-17T06:27:11.074Z,2.75
2023-04-17T06:28:13.730Z,2.50
2023-04-17T06:29:17.538Z,2.60
2023-04-17T06:30:21.479Z,2.92
2023-04-17T06:31:24.955Z,2.13
2023-04-17T06:32:27.446Z,2.13
2023-04-17T06:33:30.982Z,2.20
2023-04-17T06:34:33.442Z,2.42
2023-04-17T06:35:39.633Z,2.03
2023-04-17T06:36:42.159Z,2.03
2023-04-17T06:37:45.512Z,1.80
2023-04-17T06:38:48.278Z,1.70
2023-04-17T06:39:51.871Z,1.55
2023-04-17T06:40:54.174Z,1.73
2023-04-17T06:41:59.451Z,1.30
2023-04-17T06:43:02.074Z,1.40
2023-04-17T06:44:05.523Z,1.23
2023-04-17T06:45:10.418Z,1.52
2023-04-17T06:46:14.000Z,1.80
2023-04-17T06:47:16.409Z,1.33
2023-04-17T06:48:19.758Z,1.20
2023-04-17T06:49:22.463Z,1.33
2023-04-17T06:50:26.436Z,1.40
2023-04-17T06:51:29.387Z,1.40
2023-04-17T06:52:32.735Z,1.45
2023-04-17T06:53:35.141Z,1.27
2023-04-17T06:54:40.416Z,1.50
2023-04-17T06:55:42.880Z,1.20
2023-04-17T06:56:46.372Z,1.15
2023-04-17T06:57:50.231Z,1.43
2023-04-17T06:58:54.746Z,0.93
2023-04-17T06:59:57.424Z,1.25
2023-04-17T07:01:00.914Z,1.13
2023-04-17T07:02:03.675Z,1.00
2023-04-17T07:03:07.914Z,1.20
2023-04-17T07:04:10.909Z,1.10
2023-04-17T07:05:14.420Z,1.00
2023-04-17T07:06:17.383Z,1.35
2023-04-17T07:07:21.337Z,1.13
2023-04-17T07:08:23.907Z,1.37
2023-04-17T07:09:27.604Z,1.25
2023-04-17T07:10:29.990Z,1.20
2023-04-17T07:11:33.493Z,1.27
2023-04-17T07:12:36.339Z,1.48
2023-04-17T07:13:41.409Z,1.20
2023-04-17T07:14:43.998Z,1.27
2023-04-17T07:15:52.877Z,1.40
2023-04-17T07:16:57.011Z,1.20
2023-04-17T07:17:59.926Z,1.30
2023-04-17T07:19:03.346Z,1.40
2023-04-17T07:20:08.692Z,1.20
2023-04-17T07:21:12.195Z,1.52
2023-04-17T07:22:14.448Z,1.50
2023-04-17T07:23:17.697Z,1.40
2023-04-17T07:24:20.022Z,1.52
2023-04-17T07:25:23.339Z,1.25
2023-04-17T07:26:26.724Z,1.67
2023-04-17T07:27:29.158Z,1.73
2023-04-17T07:28:32.592Z,1.33
2023-04-17T07:29:36.432Z,1.33
2023-04-17T07:30:39.833Z,1.50
2023-04-17T07:31:43.318Z,1.90
2023-04-17T07:32:47.083Z,1.50
2023-04-17T07:33:50.726Z,1.90
2023-04-17T07:34:54.122Z,1.85
2023-04-17T07:35:56.416Z,2.00
2023-04-17T07:36:59.727Z,1.88
2023-04-17T07:38:04.493Z,1.80
2023-04-17T07:39:08.236Z,1.80
2023-04-17T07:40:13.621Z,1.50
2023-04-17T07:41:17.913Z,1.40
2023-04-17T07:42:20.235Z,1.63
2023-04-17T07:43:23.466Z,1.40
2023-04-17T07:44:26.815Z,1.67
2023-04-17T07:45:39.123Z,2.10
2023-04-17T07:46:42.634Z,1.85
2023-04-17T07:47:46.065Z,1.88
2023-04-17T07:48:48.368Z,2.13
2023-04-17T07:49:51.684Z,1.88
2023-04-17T07:50:55.137Z,1.80
2023-04-17T07:51:57.682Z,1.58
2023-04-17T07:53:01.178Z,1.58
2023-04-17T07:54:04.626Z,1.98
2023-04-17T07:55:08.890Z,1.85
2023-04-17T07:56:13.241Z,1.63
2023-04-17T07:57:18.229Z,1.70
2023-04-17T07:58:20.454Z,1.98
2023-04-17T07:59:24.247Z,1.63
2023-04-17T08:00:26.727Z,1.63
2023-04-17T08:01:32.175Z,1.47
2023-04-17T08:02:35.684Z,1.63
2023-04-17T08:03:41.935Z,1.60
2023-04-17T08:04:44.980Z,1.30
2023-04-17T08:05:48.522Z,1.50
2023-04-17T08:06:52.400Z,1.48
2023-04-17T08:07:55.833Z,1.50
2023-04-17T08:09:00.124Z,1.40
2023-04-17T08:10:03.810Z,2.20
2023-04-17T08:11:07.789Z,1.45
2023-04-17T08:12:11.743Z,1.40
2023-04-17T08:13:14.590Z,1.55
2023-04-17T08:14:20.366Z,1.42
2023-04-17T08:15:22.822Z,1.80
2023-04-17T08:16:26.267Z,1.60
2023-04-17T08:17:31.453Z,1.50
2023-04-17T08:18:39.918Z,1.73
2023-04-17T08:19:42.300Z,1.45
2023-04-17T08:20:46.002Z,1.52
2023-04-17T08:21:48.878Z,1.67
2023-04-17T08:22:52.270Z,1.40
2023-04-17T08:23:54.884Z,1.58
2023-04-17T08:24:58.884Z,1.55
2023-04-17T08:26:03.293Z,1.40
2023-04-17T08:27:06.421Z,1.17
2023-04-17T08:28:10.300Z,1.30
2023-04-17T08:29:12.988Z,1.40
2023-04-17T08:30:19.191Z,1.52
2023-04-17T08:31:23.254Z,1.65
2023-04-17T08:32:26.844Z,1.30
2023-04-17T08:33:31.396Z,1.80
2023-04-17T08:34:36.666Z,1.60
2023-04-17T08:35:40.976Z,1.65
2023-04-17T08:36:43.614Z,1.67
2023-04-17T08:37:48.121Z,1.40
2023-04-17T08:38:52.163Z,1.20
2023-04-17T08:39:55.609Z,1.40
2023-04-17T08:41:03.035Z,1.67
2023-04-17T08:42:14.047Z,1.67
2023-04-17T08:43:21.283Z,1.40
2023-04-17T08:44:23.791Z,1.53
2023-04-17T08:45:27.596Z,1.30
2023-04-17T08:46:31.508Z,1.85
2023-04-17T08:47:36.196Z,1.60
2023-04-17T08:48:41.540Z,1.40
2023-04-17T08:49:46.196Z,1.42
2023-04-17T08:50:51.390Z,1.52
2023-04-17T08:51:53.738Z,1.30
2023-04-17T08:52:57.147Z,1.35
2023-04-17T08:53:59.600Z,1.23
2023-04-17T08:55:03.080Z,1.20
2023-04-17T08:56:08.908Z,1.15
2023-04-17T08:57:11.549Z,1.50
2023-04-17T08:58:16.064Z,1.60
2023-04-17T08:59:18.364Z,1.52
2023-04-17T09:00:26.524Z,1.33
2023-04-17T09:01:30.245Z,1.83
2023-04-17T09:02:34.474Z,1.33
2023-04-17T09:03:45.155Z,1.40
2023-04-17T09:04:48.898Z,1.27
2023-04-17T09:05:59.726Z,1.20
2023-04-17T09:07:02.503Z,1.58
2023-04-17T09:08:15.004Z,1.20
2023-04-17T09:09:18.077Z,1.60
2023-04-17T09:10:22.483Z,1.30
2023-04-17T09:11:25.937Z,1.30
2023-04-17T09:12:29.833Z,1.40
2023-04-17T09:13:42.047Z,1.50
2023-04-17T09:14:44.834Z,1.20
2023-04-17T09:15:50.135Z,1.25
2023-04-17T09:16:54.949Z,1.10
2023-04-17T09:17:59.059Z,1.33
2023-04-17T09:19:09.156Z,1.20
2023-04-17T09:20:12.485Z,1.40
2023-04-17T09:21:18.933Z,1.70
2023-04-17T09:22:22.893Z,1.30
2023-04-17T09:23:27.375Z,1.13
2023-04-17T09:24:38.131Z,0.93
2023-04-17T09:25:41.733Z,1.30
2023-04-17T09:26:44.454Z,1.08
2023-04-17T09:27:48.564Z,1.00
2023-04-17T09:29:04.276Z,1.33
2023-04-17T09:30:08.334Z,1.50
2023-04-17T09:31:27.560Z,1.15
2023-04-17T09:32:31.889Z,1.40
2023-04-17T09:33:36.513Z,1.88
2023-04-17T09:34:42.662Z,1.35
2023-04-17T09:35:46.226Z,0.90
2023-04-17T09:36:56.235Z,1.20
2023-04-17T09:37:59.530Z,1.60
2023-04-17T09:39:06.470Z,1.30
2023-04-17T09:40:12.039Z,1.20
2023-04-17T09:41:24.990Z,1.10
2023-04-17T09:42:27.973Z,1.13
2023-04-17T09:43:43.639Z,1.20
2023-04-17T09:44:46.213Z,1.33
2023-04-17T09:45:52.431Z,1.10
2023-04-17T09:46:55.905Z,1.15
2023-04-17T09:47:59.521Z,1.50
2023-04-17T09:49:09.458Z,1.33
2023-04-17T09:50:16.354Z,1.20
2023-04-17T09:51:19.953Z,1.40
2023-04-17T09:52:25.198Z,1.63
2023-04-17T09:53:29.560Z,1.15
2023-04-17T09:54:33.045Z,1.63
2023-04-17T09:55:38.369Z,1.20
2023-04-17T09:56:41.560Z,1.02
2023-04-17T09:57:46.670Z,1.10
2023-04-17T09:58:50.610Z,1.23
2023-04-17T09:59:59.662Z,1.23
2023-04-17T10:01:04.123Z,1.10
2023-04-17T10:02:08.753Z,1.20
2023-04-17T10:03:18.170Z,1.02
2023-04-17T10:04:22.917Z,1.23
2023-04-17T10:05:29.347Z,1.40
2023-04-17T10:06:33.163Z,0.90
2023-04-17T10:07:38.032Z,1.20
2023-04-17T10:08:41.302Z,1.58
2023-04-17T10:09:46.046Z,1.40
2023-04-17T10:10:50.934Z,1.30
2023-04-17T10:11:54.139Z,1.20
2023-04-17T10:13:01.230Z,1.20
2023-04-17T10:14:11.122Z,1.23
2023-04-17T10:15:16.431Z,1.55
2023-04-17T10:16:20.298Z,1.50
2023-04-17T10:17:24.347Z,1.20
2023-04-17T10:18:28.813Z,1.40
2023-04-17T10:19:32.741Z,1.40
2023-04-17T10:20:39.873Z,1.70
2023-04-17T10:21:42.258Z,1.70
2023-04-17T10:22:46.382Z,2.43
2023-04-17T10:23:49.655Z,1.80
2023-04-17T10:25:13.859Z,2.20
2023-04-17T10:26:41.319Z,1.35
2023-04-17T10:27:45.550Z,1.50
2023-04-17T10:28:50.911Z,1.33
2023-04-17T10:29:54.776Z,1.30
2023-04-17T10:30:58.791Z,1.80
2023-04-17T10:32:28.917Z,1.30
2023-04-17T10:33:32.404Z,1.67
2023-04-17T10:34:35.866Z,1.40
2023-04-17T10:35:41.470Z,1.50
2023-04-17T10:36:57.019Z,1.55
2023-04-17T10:38:06.494Z,1.20
2023-04-17T10:39:15.029Z,1.52
2023-04-17T10:40:21.482Z,1.50
2023-04-17T10:41:27.508Z,1.50
2023-04-17T10:42:31.190Z,1.40
2023-04-17T10:43:34.950Z,1.67
2023-04-17T10:44:40.000Z,1.40
2023-04-17T10:45:59.579Z,1.53
2023-04-17T10:47:07.069Z,1.88
2023-04-17T10:48:21.677Z,1.45
2023-04-17T10:49:25.041Z,1.80
2023-04-17T10:50:30.086Z,1.48
2023-04-17T10:51:44.663Z,1.40
2023-04-17T10:52:47.846Z,1.70
2023-04-17T10:53:53.119Z,1.40
2023-04-17T10:55:06.682Z,1.90
2023-04-17T10:56:09.950Z,1.40
2023-04-17T10:57:13.280Z,1.33
2023-04-17T10:58:17.170Z,1.77
2023-04-17T10:59:22.149Z,1.45
2023-04-17T11:00:33.347Z,1.38
2023-04-17T11:01:40.987Z,1.30
2023-04-17T11:02:45.765Z,1.55
2023-04-17T11:03:49.537Z,1.50
2023-04-17T11:05:07.862Z,1.60
2023-04-17T11:06:13.332Z,1.80
2023-04-17T11:07:17.349Z,1.60
2023-04-17T11:08:21.374Z,1.77
2023-04-17T11:09:27.564Z,1.60
2023-04-17T11:10:31.062Z,1.58
2023-04-17T11:11:44.009Z,1.70
2023-04-17T11:12:49.542Z,1.60
2023-04-17T11:13:53.131Z,1.35
2023-04-17T11:15:03.274Z,1.50
2023-04-17T11:16:06.009Z,1.45
2023-04-17T11:17:10.828Z,1.60
2023-04-17T11:18:14.180Z,1.77
2023-04-17T11:19:21.559Z,1.70
2023-04-17T11:20:27.343Z,1.65
2023-04-17T11:21:30.214Z,1.35
2023-04-17T11:22:36.553Z,1.50
2023-04-17T11:23:40.356Z,1.20
2023-04-17T11:24:42.822Z,1.40
2023-04-17T11:25:47.593Z,1.63
2023-04-17T11:26:50.197Z,1.52
2023-04-17T11:27:56.512Z,1.48
2023-04-17T11:29:01.221Z,1.50
2023-04-17T11:30:04.005Z,1.60
2023-04-17T11:31:07.621Z,1.20
2023-04-17T11:32:13.806Z,1.73
2023-04-17T11:33:17.427Z,1.75
2023-04-17T11:34:20.582Z,1.60
2023-04-17T11:35:29.562Z,1.30
2023-04-17T11:36:34.455Z,1.55
2023-04-17T11:38:06.286Z,1.38
2023-04-17T11:39:11.378Z,1.70
2023-04-17T11:40:14.126Z,2.10
2023-04-17T11:41:17.523Z,1.50
2023-04-17T11:42:28.460Z,1.55
2023-04-17T11:43:37.049Z,1.63
2023-04-17T11:44:43.390Z,1.55
2023-04-17T11:45:49.273Z,1.80
2023-04-17T11:46:55.134Z,1.50
2023-04-17T11:47:57.604Z,1.48
2023-04-17T11:49:01.116Z,2.30
2023-04-17T11:50:04.256Z,1.77
2023-04-17T11:51:08.739Z,1.70
2023-04-17T11:52:11.138Z,1.57
2023-04-17T11:53:17.526Z,1.80
2023-04-17T11:54:28.297Z,1.60
2023-04-17T11:55:31.694Z,1.70
2023-04-17T11:56:35.994Z,1.55
2023-04-17T11:57:44.035Z,1.52
2023-04-17T11:58:48.925Z,1.88
2023-04-17T11:59:51.704Z,1.40
2023-04-17T12:01:06.838Z,1.60
2023-04-17T12:02:10.203Z,1.70
2023-04-17T12:03:35.498Z,1.47
2023-04-17T12:04:40.608Z,1.40
2023-04-17T12:05:43.343Z,1.70
2023-04-17T12:06:46.719Z,1.63
2023-04-17T12:08:00.379Z,1.33
2023-04-17T12:09:07.348Z,1.48
2023-04-17T12:10:10.185Z,1.60
2023-04-17T12:11:20.838Z,1.30
2023-04-17T12:12:24.769Z,2.00
2023-04-17T12:13:27.337Z,1.70
2023-04-17T12:14:31.604Z,1.40
2023-04-17T12:15:35.366Z,1.40
2023-04-17T12:16:39.609Z,1.55
2023-04-17T12:17:42.176Z,1.80
2023-04-17T12:18:46.624Z,1.35
2023-04-17T12:19:49.067Z,1.60
2023-04-17T12:20:52.775Z,1.52
2023-04-17T12:21:55.827Z,1.65
2023-04-17T12:22:59.281Z,1.85
2023-04-17T12:24:07.462Z,1.80
2023-04-17T12:25:11.275Z,1.30
2023-04-17T12:26:15.751Z,1.80
2023-04-17T12:27:19.057Z,1.60
2023-04-17T12:28:22.531Z,1.60
2023-04-17T12:29:40.485Z,1.42
2023-04-17T12:30:47.511Z,1.65
2023-04-17T12:31:51.623Z,1.33
2023-04-17T12:32:54.820Z,1.50
2023-04-17T12:33:59.536Z,1.60
2023-04-17T12:35:04.001Z,1.40
2023-04-17T12:36:10.005Z,1.60
2023-04-17T12:37:12.725Z,1.55
2023-04-17T12:38:16.961Z,1.60
2023-04-17T12:39:21.262Z,1.60
2023-04-17T12:40:26.600Z,1.77
2023-04-17T12:41:30.425Z,1.30
2023-04-17T12:42:42.415Z,1.48
2023-04-17T12:43:52.608Z,1.52
2023-04-17T12:44:55.129Z,1.55
2023-04-17T12:45:58.588Z,1.88
2023-04-17T12:47:01.038Z,1.50
2023-04-17T12:48:05.186Z,1.60
2023-04-17T12:49:07.618Z,1.85
2023-04-17T12:50:13.703Z,1.65
2023-04-17T12:51:17.199Z,1.30
2023-04-17T12:52:20.750Z,1.38
2023-04-17T12:53:24.599Z,1.38
2023-04-17T12:54:28.832Z,1.35
2023-04-17T12:55:32.496Z,1.73
2023-04-17T12:56:36.370Z,1.65
2023-04-17T12:57:40.270Z,1.33
2023-04-17T12:58:43.918Z,1.25
2023-04-17T12:59:46.746Z,1.40
2023-04-17T13:00:50.707Z,1.50
2023-04-17T13:01:53.347Z,1.38
2023-04-17T13:02:57.511Z,1.40
2023-04-17T13:04:00.873Z,2.20
2023-04-17T13:05:06.040Z,1.85
2023-04-17T13:06:08.550Z,1.48
2023-04-17T13:07:12.159Z,1.20
2023-04-17T13:08:16.468Z,1.37
2023-04-17T13:09:20.076Z,1.60
2023-04-17T13:10:25.148Z,1.40
2023-04-17T13:11:27.703Z,1.35
2023-04-17T13:12:32.075Z,1.40
2023-04-17T13:13:34.881Z,1.70
2023-04-17T13:14:39.448Z,1.45
2023-04-17T13:15:46.055Z,1.30
2023-04-17T13:16:50.906Z,1.77
2023-04-17T13:17:54.912Z,1.35
2023-04-17T13:18:57.422Z,1.10
2023-04-17T13:20:01.269Z,1.48
2023-04-17T13:21:04.645Z,1.63
2023-04-17T13:22:07.537Z,1.20
2023-04-17T13:23:12.009Z,1.40
2023-04-17T13:24:15.112Z,1.38
2023-04-17T13:25:18.802Z,1.40
2023-04-17T13:26:22.752Z,1.30
2023-04-17T13:27:26.604Z,1.15
2023-04-17T13:28:29.066Z,1.48
2023-04-17T13:29:32.510Z,1.53
2023-04-17T13:30:38.087Z,1.60
2023-04-17T13:31:42.070Z,1.80
2023-04-17T13:32:47.042Z,1.60
2023-04-17T13:33:50.479Z,1.52
2023-04-17T13:34:54.617Z,1.30
2023-04-17T13:35:58.641Z,1.25
2023-04-17T13:37:02.518Z,1.30
2023-04-17T13:38:06.129Z,1.40
2023-04-17T13:39:09.847Z,1.38
2023-04-17T13:40:15.350Z,2.03
2023-04-17T13:41:19.534Z,1.42
2023-04-17T13:42:24.391Z,1.30
2023-04-17T13:43:26.800Z,1.10
2023-04-17T13:44:30.642Z,1.42
2023-04-17T13:45:33.261Z,1.33
2023-04-17T13:46:37.323Z,1.50
2023-04-17T13:47:41.181Z,1.30
2023-04-17T13:48:43.630Z,1.40
2023-04-17T13:49:47.072Z,1.10
2023-04-17T13:50:49.573Z,1.20
2023-04-17T13:51:53.006Z,1.00
2023-04-17T13:52:55.421Z,1.30
2023-04-17T13:54:00.473Z,1.20
2023-04-17T13:55:07.874Z,1.50
2023-04-17T13:56:13.161Z,1.13
2023-04-17T13:57:18.661Z,1.48
2023-04-17T13:58:23.031Z,1.30
2023-04-17T13:59:27.162Z,1.50
2023-04-17T14:00:30.054Z,1.20
2023-04-17T14:01:33.963Z,1.40
2023-04-17T14:02:36.556Z,1.00
2023-04-17T14:03:43.063Z,1.45
2023-04-17T14:04:48.067Z,1.55
2023-04-17T14:05:51.270Z,1.20
2023-04-17T14:06:55.210Z,1.35
2023-04-17T14:07:57.865Z,1.42
2023-04-17T14:09:01.443Z,0.98
2023-04-17T14:10:05.508Z,2.20
2023-04-17T14:11:08.203Z,1.10
2023-04-17T14:12:11.904Z,1.30
2023-04-17T14:13:14.349Z,1.27
2023-04-17T14:14:19.046Z,1.23
2023-04-17T14:15:21.353Z,1.58
2023-04-17T14:16:25.250Z,1.85
2023-04-17T14:17:27.814Z,1.30